首页
METAR-TAF:

METAR-TAF

机场 :

西安咸阳国际机场

西安, 中华人民共和国

纬度: 34-26N, 经度: 108-45E, 海拔: 479米

当前天气观测

该预报发布于1小时和0分钟前的01:00 UTC
风速12节,风向西转西南,在南转西南西之间变化
温度 15°C
湿度 82%
气压 1023 hPa
能見度: 5000
散云层高于3000英尺
阴天层高于6000英尺
小雨, 轻雾

METAR: ZLXY 260100Z 25006MPS 210V280 5000 -RA BR SCT030 OVC060 15/12 Q1023 NOSIG

时间: 10:00 (02:00 UTC)

预报

该预报发布于3小时和31分钟前的22:29 UTC
预报有效从26日的 00点(UTC)到 26日的 24点(UTC)
风速10节,风向西转西北,有时为23节阵风
能見度: 3000
扬沙
成为
从 26日的 07点(UTC)到 26日的 08点(UTC)
风速8节,风向西南
短暂存在
从 26日的 00点(UTC)到 26日的 04点(UTC)
阵雨

TAF: ZLXY 252229Z 2600/2624 30005G12MPS 3000 SA NSC TX22/2608Z TN12/2622Z BECMG 2607/2608 23004MPS TEMPO 2600/2604 SHRA

超过4000个机场的气象观测和天气预报(METAR&TAF报告)。

可查询的气象台以黄色和红色小点在地图上表示。

将鼠标移到小点上方,可查看气象台名称。

然后点击查看天气观测和预报。

如需切换地图:点击带黑十字的绿色按钮放大地图;点击带横线的绿色按钮缩小地图;或者点击绿色箭头查看邻近地区的地图。


METAR-TAF: